Terminal Aerodrome Forecast
Issued by NWS

Home | Current Version | Previous Version | Text Only | Print | Product List | Glossary On
Versions: 1 2 3 4 5 6 7 8 9 10 11 12 13 14 15 16 17 18 19
000
FTUS43 KGRB 240520
TAFRHI
TAF
KRHI 240520Z 2406/2506 VRB03KT 5SM BR SKC
      TEMPO 2409/2411 1SM BR BKN008
     FM241300 06004KT P6SM SCT025
     FM241800 03005KT P6SM SCT040
     FM242100 14003KT P6SM SCT060
     FM250200 VRB03KT P6SM SKC=

USA.gov is the U.S. government's official web portal to all federal, state and local government web resources and services.